sensor_id;sensor_type;location;lat;lon;timestamp;P1;durP1;ratioP1;P2;durP2;ratioP2
16401;SDS011;8310;44.626;11.176;2022-09-17T00:01:15;7.97;;;2.13;;
16401;SDS011;8310;44.626;11.176;2022-09-17T00:03:44;6.57;;;2.13;;
16401;SDS011;8310;44.626;11.176;2022-09-17T00:06:16;9.32;;;2.20;;
16401;SDS011;8310;44.626;11.176;2022-09-17T00:08:45;6.05;;;2.33;;
16401;SDS011;8310;44.626;11.176;2022-09-17T00:11:14;8.63;;;2.30;;
16401;SDS011;8310;44.626;11.176;2022-09-17T00:13:43;9.57;;;2.22;;
16401;SDS011;8310;44.626;11.176;2022-09-17T00:16:11;6.50;;;2.28;;
16401;SDS011;8310;44.626;11.176;2022-09-17T00:18:39;8.07;;;2.53;;
16401;SDS011;8310;44.626;11.176;2022-09-17T00:21:07;7.75;;;2.55;;
16401;SDS011;8310;44.626;11.176;2022-09-17T00:23:43;5.28;;;2.00;;
16401;SDS011;8310;44.626;11.176;2022-09-17T00:26:11;5.07;;;1.98;;
16401;SDS011;8310;44.626;11.176;2022-09-17T00:28:39;4.82;;;1.90;;
16401;SDS011;8310;44.626;11.176;2022-09-17T00:31:09;9.05;;;2.67;;
16401;SDS011;8310;44.626;11.176;2022-09-17T00:33:37;6.43;;;1.90;;
16401;SDS011;8310;44.626;11.176;2022-09-17T00:36:05;5.03;;;1.75;;
16401;SDS011;8310;44.626;11.176;2022-09-17T00:38:34;8.48;;;2.15;;
16401;SDS011;8310;44.626;11.176;2022-09-17T00:41:02;7.00;;;2.08;;
16401;SDS011;8310;44.626;11.176;2022-09-17T00:43:38;7.38;;;2.25;;
16401;SDS011;8310;44.626;11.176;2022-09-17T00:46:14;9.02;;;1.83;;
16401;SDS011;8310;44.626;11.176;2022-09-17T00:48:52;4.05;;;2.17;;
16401;SDS011;8310;44.626;11.176;2022-09-17T00:51:21;3.85;;;1.75;;
16401;SDS011;8310;44.626;11.176;2022-09-17T00:53:55;6.97;;;2.13;;
16401;SDS011;8310;44.626;11.176;2022-09-17T00:56:24;5.45;;;2.05;;
16401;SDS011;8310;44.626;11.176;2022-09-17T00:58:53;6.35;;;2.15;;
16401;SDS011;8310;44.626;11.176;2022-09-17T01:01:20;6.50;;;2.00;;
16401;SDS011;8310;44.626;11.176;2022-09-17T01:03:48;5.18;;;2.05;;
16401;SDS011;8310;44.626;11.176;2022-09-17T01:06:18;13.65;;;2.35;;
16401;SDS011;8310;44.626;11.176;2022-09-17T01:08:53;8.52;;;2.20;;
16401;SDS011;8310;44.626;11.176;2022-09-17T01:11:37;4.40;;;1.83;;
16401;SDS011;8310;44.626;11.176;2022-09-17T01:14:18;7.38;;;1.80;;
16401;SDS011;8310;44.626;11.176;2022-09-17T01:16:56;6.38;;;2.22;;
16401;SDS011;8310;44.626;11.176;2022-09-17T01:19:53;4.45;;;1.83;;
16401;SDS011;8310;44.626;11.176;2022-09-17T01:22:52;5.47;;;2.08;;
16401;SDS011;8310;44.626;11.176;2022-09-17T01:25:37;5.40;;;1.50;;
16401;SDS011;8310;44.626;11.176;2022-09-17T01:28:20;3.92;;;1.42;;
16401;SDS011;8310;44.626;11.176;2022-09-17T01:31:12;4.95;;;1.70;;
16401;SDS011;8310;44.626;11.176;2022-09-17T01:33:52;1.25;;;1.10;;
16401;SDS011;8310;44.626;11.176;2022-09-17T01:36:35;4.95;;;1.40;;
16401;SDS011;8310;44.626;11.176;2022-09-17T01:39:13;3.28;;;1.30;;
16401;SDS011;8310;44.626;11.176;2022-09-17T01:41:50;3.08;;;1.20;;
16401;SDS011;8310;44.626;11.176;2022-09-17T01:44:22;2.80;;;1.40;;
16401;SDS011;8310;44.626;11.176;2022-09-17T01:46:55;2.70;;;1.40;;
16401;SDS011;8310;44.626;11.176;2022-09-17T01:49:29;3.10;;;1.40;;
16401;SDS011;8310;44.626;11.176;2022-09-17T01:52:00;1.80;;;1.20;;
16401;SDS011;8310;44.626;11.176;2022-09-17T01:54:30;4.15;;;1.30;;
16401;SDS011;8310;44.626;11.176;2022-09-17T01:57:02;2.50;;;1.48;;
16401;SDS011;8310;44.626;11.176;2022-09-17T01:59:35;2.78;;;1.23;;
16401;SDS011;8310;44.626;11.176;2022-09-17T02:02:09;2.53;;;1.27;;
16401;SDS011;8310;44.626;11.176;2022-09-17T02:04:42;4.50;;;1.20;;
16401;SDS011;8310;44.626;11.176;2022-09-17T02:07:15;2.90;;;1.52;;
16401;SDS011;8310;44.626;11.176;2022-09-17T02:09:47;1.48;;;1.10;;
16401;SDS011;8310;44.626;11.176;2022-09-17T02:12:23;3.40;;;1.30;;
16401;SDS011;8310;44.626;11.176;2022-09-17T02:14:55;1.98;;;1.20;;
16401;SDS011;8310;44.626;11.176;2022-09-17T02:17:29;2.78;;;1.40;;
16401;SDS011;8310;44.626;11.176;2022-09-17T02:20:00;1.60;;;1.33;;
16401;SDS011;8310;44.626;11.176;2022-09-17T02:22:31;2.40;;;1.10;;
16401;SDS011;8310;44.626;11.176;2022-09-17T02:25:05;2.40;;;1.25;;
16401;SDS011;8310;44.626;11.176;2022-09-17T02:27:42;1.85;;;0.98;;
16401;SDS011;8310;44.626;11.176;2022-09-17T02:30:16;1.35;;;1.10;;
16401;SDS011;8310;44.626;11.176;2022-09-17T02:32:46;3.67;;;1.20;;
16401;SDS011;8310;44.626;11.176;2022-09-17T02:35:14;2.60;;;1.25;;
16401;SDS011;8310;44.626;11.176;2022-09-17T02:37:42;2.67;;;1.30;;
16401;SDS011;8310;44.626;11.176;2022-09-17T02:40:11;1.08;;;0.90;;
16401;SDS011;8310;44.626;11.176;2022-09-17T02:42:47;1.05;;;1.02;;
16401;SDS011;8310;44.626;11.176;2022-09-17T02:45:27;2.08;;;1.30;;
16401;SDS011;8310;44.626;11.176;2022-09-17T02:48:14;2.17;;;0.90;;
16401;SDS011;8310;44.626;11.176;2022-09-17T02:53:41;1.23;;;1.00;;
16401;SDS011;8310;44.626;11.176;2022-09-17T02:56:17;1.05;;;0.90;;
16401;SDS011;8310;44.626;11.176;2022-09-17T02:58:49;1.95;;;0.75;;
16401;SDS011;8310;44.626;11.176;2022-09-17T03:01:22;1.00;;;1.00;;
16401;SDS011;8310;44.626;11.176;2022-09-17T03:03:57;0.95;;;0.85;;
16401;SDS011;8310;44.626;11.176;2022-09-17T03:06:28;3.35;;;1.05;;
16401;SDS011;8310;44.626;11.176;2022-09-17T03:08:56;1.88;;;0.75;;
16401;SDS011;8310;44.626;11.176;2022-09-17T03:11:23;1.15;;;0.90;;
16401;SDS011;8310;44.626;11.176;2022-09-17T03:13:51;1.23;;;1.02;;
16401;SDS011;8310;44.626;11.176;2022-09-17T03:16:18;3.20;;;0.85;;
16401;SDS011;8310;44.626;11.176;2022-09-17T03:18:46;2.88;;;1.23;;
16401;SDS011;8310;44.626;11.176;2022-09-17T03:21:15;1.40;;;0.98;;
16401;SDS011;8310;44.626;11.176;2022-09-17T03:23:45;2.83;;;0.90;;
16401;SDS011;8310;44.626;11.176;2022-09-17T03:26:13;0.70;;;0.68;;
16401;SDS011;8310;44.626;11.176;2022-09-17T03:28:40;6.88;;;1.25;;
16401;SDS011;8310;44.626;11.176;2022-09-17T03:31:08;1.65;;;0.90;;
16401;SDS011;8310;44.626;11.176;2022-09-17T03:33:35;3.75;;;0.90;;
16401;SDS011;8310;44.626;11.176;2022-09-17T03:36:03;1.98;;;1.00;;
16401;SDS011;8310;44.626;11.176;2022-09-17T03:38:32;3.33;;;1.00;;
16401;SDS011;8310;44.626;11.176;2022-09-17T03:41:09;2.50;;;0.98;;
16401;SDS011;8310;44.626;11.176;2022-09-17T03:43:37;1.30;;;1.20;;
16401;SDS011;8310;44.626;11.176;2022-09-17T03:46:05;1.88;;;1.00;;
16401;SDS011;8310;44.626;11.176;2022-09-17T03:48:33;3.17;;;1.00;;
16401;SDS011;8310;44.626;11.176;2022-09-17T03:51:03;1.63;;;1.13;;
16401;SDS011;8310;44.626;11.176;2022-09-17T03:53:33;2.50;;;1.08;;
16401;SDS011;8310;44.626;11.176;2022-09-17T03:56:01;1.73;;;0.90;;
16401;SDS011;8310;44.626;11.176;2022-09-17T03:58:30;1.40;;;1.20;;
16401;SDS011;8310;44.626;11.176;2022-09-17T04:00:58;1.67;;;0.90;;
16401;SDS011;8310;44.626;11.176;2022-09-17T04:03:26;2.83;;;1.08;;
16401;SDS011;8310;44.626;11.176;2022-09-17T04:05:54;3.00;;;1.00;;
16401;SDS011;8310;44.626;11.176;2022-09-17T04:08:22;3.15;;;0.98;;
16401;SDS011;8310;44.626;11.176;2022-09-17T04:10:52;3.90;;;1.20;;
16401;SDS011;8310;44.626;11.176;2022-09-17T04:13:19;3.35;;;1.10;;
16401;SDS011;8310;44.626;11.176;2022-09-17T04:15:47;1.55;;;0.93;;
16401;SDS011;8310;44.626;11.176;2022-09-17T04:18:15;1.88;;;1.13;;
16401;SDS011;8310;44.626;11.176;2022-09-17T04:20:43;2.45;;;1.40;;
16401;SDS011;8310;44.626;11.176;2022-09-17T04:23:10;4.07;;;1.35;;
16401;SDS011;8310;44.626;11.176;2022-09-17T04:25:38;4.72;;;1.50;;
16401;SDS011;8310;44.626;11.176;2022-09-17T04:28:07;5.47;;;1.63;;
16401;SDS011;8310;44.626;11.176;2022-09-17T04:30:35;5.82;;;1.80;;
16401;SDS011;8310;44.626;11.176;2022-09-17T04:33:03;5.93;;;2.42;;
16401;SDS011;8310;44.626;11.176;2022-09-17T04:35:30;10.50;;;2.63;;
16401;SDS011;8310;44.626;11.176;2022-09-17T04:37:57;5.57;;;2.15;;
16401;SDS011;8310;44.626;11.176;2022-09-17T04:40:26;8.57;;;2.58;;
16401;SDS011;8310;44.626;11.176;2022-09-17T04:42:54;13.70;;;2.58;;
16401;SDS011;8310;44.626;11.176;2022-09-17T04:45:25;7.28;;;1.98;;
16401;SDS011;8310;44.626;11.176;2022-09-17T04:47:52;5.35;;;1.98;;
16401;SDS011;8310;44.626;11.176;2022-09-17T04:50:19;9.55;;;3.03;;
16401;SDS011;8310;44.626;11.176;2022-09-17T04:52:47;6.45;;;2.35;;
16401;SDS011;8310;44.626;11.176;2022-09-17T04:55:15;4.38;;;1.70;;
16401;SDS011;8310;44.626;11.176;2022-09-17T04:57:44;7.30;;;1.55;;
16401;SDS011;8310;44.626;11.176;2022-09-17T05:00:13;7.57;;;2.47;;
16401;SDS011;8310;44.626;11.176;2022-09-17T05:02:44;4.18;;;2.17;;
16401;SDS011;8310;44.626;11.176;2022-09-17T05:05:13;3.85;;;1.20;;
16401;SDS011;8310;44.626;11.176;2022-09-17T05:07:41;5.40;;;1.70;;
16401;SDS011;8310;44.626;11.176;2022-09-17T05:10:10;3.72;;;1.63;;
16401;SDS011;8310;44.626;11.176;2022-09-17T05:12:39;3.83;;;1.30;;
16401;SDS011;8310;44.626;11.176;2022-09-17T05:15:06;1.92;;;1.30;;
16401;SDS011;8310;44.626;11.176;2022-09-17T05:17:34;2.83;;;1.60;;
16401;SDS011;8310;44.626;11.176;2022-09-17T05:20:04;3.47;;;1.33;;
16401;SDS011;8310;44.626;11.176;2022-09-17T05:22:31;1.73;;;1.13;;
16401;SDS011;8310;44.626;11.176;2022-09-17T05:24:58;1.52;;;1.00;;
16401;SDS011;8310;44.626;11.176;2022-09-17T05:27:27;1.48;;;0.90;;
16401;SDS011;8310;44.626;11.176;2022-09-17T05:29:55;2.30;;;1.02;;
16401;SDS011;8310;44.626;11.176;2022-09-17T05:32:26;1.20;;;1.05;;
16401;SDS011;8310;44.626;11.176;2022-09-17T05:34:54;1.30;;;1.10;;
16401;SDS011;8310;44.626;11.176;2022-09-17T05:37:23;2.75;;;1.15;;
16401;SDS011;8310;44.626;11.176;2022-09-17T05:39:50;1.83;;;1.05;;
16401;SDS011;8310;44.626;11.176;2022-09-17T05:42:18;1.38;;;1.00;;
16401;SDS011;8310;44.626;11.176;2022-09-17T05:44:45;1.77;;;0.88;;
16401;SDS011;8310;44.626;11.176;2022-09-17T05:47:13;1.65;;;1.00;;
16401;SDS011;8310;44.626;11.176;2022-09-17T05:49:41;0.82;;;0.82;;
16401;SDS011;8310;44.626;11.176;2022-09-17T05:52:08;1.70;;;0.70;;
16401;SDS011;8310;44.626;11.176;2022-09-17T05:54:37;2.78;;;0.70;;
16401;SDS011;8310;44.626;11.176;2022-09-17T05:57:05;1.98;;;1.00;;
16401;SDS011;8310;44.626;11.176;2022-09-17T05:59:33;1.45;;;0.95;;
16401;SDS011;8310;44.626;11.176;2022-09-17T06:02:00;0.70;;;0.70;;
16401;SDS011;8310;44.626;11.176;2022-09-17T06:04:28;1.45;;;0.40;;
16401;SDS011;8310;44.626;11.176;2022-09-17T06:06:55;1.83;;;0.85;;
16401;SDS011;8310;44.626;11.176;2022-09-17T06:09:22;1.23;;;1.13;;
16401;SDS011;8310;44.626;11.176;2022-09-17T06:11:52;2.05;;;0.75;;
16401;SDS011;8310;44.626;11.176;2022-09-17T06:14:19;1.33;;;0.80;;
16401;SDS011;8310;44.626;11.176;2022-09-17T06:16:47;0.95;;;0.82;;
16401;SDS011;8310;44.626;11.176;2022-09-17T06:19:14;1.25;;;1.15;;
16401;SDS011;8310;44.626;11.176;2022-09-17T06:21:42;1.33;;;0.80;;
16401;SDS011;8310;44.626;11.176;2022-09-17T06:24:09;2.13;;;0.80;;
16401;SDS011;8310;44.626;11.176;2022-09-17T06:26:37;0.70;;;0.70;;
16401;SDS011;8310;44.626;11.176;2022-09-17T06:29:06;0.85;;;0.40;;
16401;SDS011;8310;44.626;11.176;2022-09-17T06:31:34;3.30;;;0.80;;
16401;SDS011;8310;44.626;11.176;2022-09-17T06:34:01;3.30;;;0.80;;
16401;SDS011;8310;44.626;11.176;2022-09-17T06:36:29;4.40;;;1.98;;
16401;SDS011;8310;44.626;11.176;2022-09-17T06:38:57;3.35;;;1.35;;
16401;SDS011;8310;44.626;11.176;2022-09-17T06:41:24;3.80;;;1.38;;
16401;SDS011;8310;44.626;11.176;2022-09-17T06:43:52;3.35;;;1.50;;
16401;SDS011;8310;44.626;11.176;2022-09-17T06:46:21;4.00;;;1.40;;
16401;SDS011;8310;44.626;11.176;2022-09-17T06:48:48;3.00;;;1.17;;
16401;SDS011;8310;44.626;11.176;2022-09-17T06:51:16;2.05;;;0.85;;
16401;SDS011;8310;44.626;11.176;2022-09-17T06:53:44;0.98;;;0.95;;
16401;SDS011;8310;44.626;11.176;2022-09-17T06:56:11;3.15;;;1.00;;
16401;SDS011;8310;44.626;11.176;2022-09-17T06:58:38;2.20;;;0.95;;
16401;SDS011;8310;44.626;11.176;2022-09-17T07:01:07;1.40;;;1.30;;
16401;SDS011;8310;44.626;11.176;2022-09-17T07:03:40;1.70;;;1.40;;
16401;SDS011;8310;44.626;11.176;2022-09-17T07:06:10;0.88;;;0.82;;
16401;SDS011;8310;44.626;11.176;2022-09-17T07:08:38;1.13;;;0.95;;
16401;SDS011;8310;44.626;11.176;2022-09-17T07:11:06;2.58;;;0.70;;
16401;SDS011;8310;44.626;11.176;2022-09-17T07:13:33;0.80;;;0.80;;
16401;SDS011;8310;44.626;11.176;2022-09-17T07:16:02;1.95;;;1.08;;
16401;SDS011;8310;44.626;11.176;2022-09-17T07:18:30;0.80;;;0.80;;
16401;SDS011;8310;44.626;11.176;2022-09-17T07:21:01;1.45;;;1.13;;
16401;SDS011;8310;44.626;11.176;2022-09-17T07:23:32;1.10;;;1.00;;
16401;SDS011;8310;44.626;11.176;2022-09-17T07:26:02;2.33;;;0.90;;
16401;SDS011;8310;44.626;11.176;2022-09-17T07:28:31;2.63;;;1.02;;
16401;SDS011;8310;44.626;11.176;2022-09-17T07:31:01;2.90;;;1.10;;
16401;SDS011;8310;44.626;11.176;2022-09-17T07:33:29;0.90;;;0.90;;
16401;SDS011;8310;44.626;11.176;2022-09-17T07:35:57;0.95;;;0.95;;
16401;SDS011;8310;44.626;11.176;2022-09-17T07:38:28;1.25;;;1.15;;
16401;SDS011;8310;44.626;11.176;2022-09-17T07:40:58;1.13;;;1.08;;
16401;SDS011;8310;44.626;11.176;2022-09-17T07:43:28;0.90;;;0.90;;
16401;SDS011;8310;44.626;11.176;2022-09-17T07:45:57;0.85;;;0.85;;
16401;SDS011;8310;44.626;11.176;2022-09-17T07:48:25;1.13;;;1.00;;
16401;SDS011;8310;44.626;11.176;2022-09-17T07:50:53;1.05;;;0.90;;
16401;SDS011;8310;44.626;11.176;2022-09-17T07:53:23;3.50;;;1.13;;
16401;SDS011;8310;44.626;11.176;2022-09-17T07:55:51;1.60;;;1.00;;
16401;SDS011;8310;44.626;11.176;2022-09-17T07:58:19;1.20;;;1.13;;
16401;SDS011;8310;44.626;11.176;2022-09-17T08:00:47;1.00;;;1.00;;
16401;SDS011;8310;44.626;11.176;2022-09-17T08:03:14;1.35;;;1.10;;
16401;SDS011;8310;44.626;11.176;2022-09-17T08:05:42;1.45;;;1.00;;
16401;SDS011;8310;44.626;11.176;2022-09-17T08:08:13;1.00;;;0.90;;
16401;SDS011;8310;44.626;11.176;2022-09-17T08:10:42;2.35;;;1.05;;
16401;SDS011;8310;44.626;11.176;2022-09-17T08:13:10;1.30;;;0.90;;
16401;SDS011;8310;44.626;11.176;2022-09-17T08:15:37;1.20;;;1.00;;
16401;SDS011;8310;44.626;11.176;2022-09-17T08:18:05;0.90;;;0.90;;
16401;SDS011;8310;44.626;11.176;2022-09-17T08:20:32;1.35;;;1.05;;
16401;SDS011;8310;44.626;11.176;2022-09-17T08:23:00;0.68;;;0.68;;
16401;SDS011;8310;44.626;11.176;2022-09-17T08:25:28;1.70;;;1.17;;
16401;SDS011;8310;44.626;11.176;2022-09-17T08:27:58;1.55;;;0.80;;
16401;SDS011;8310;44.626;11.176;2022-09-17T08:30:25;0.93;;;0.90;;
16401;SDS011;8310;44.626;11.176;2022-09-17T08:32:53;1.02;;;0.90;;
16401;SDS011;8310;44.626;11.176;2022-09-17T08:35:21;1.27;;;0.80;;
16401;SDS011;8310;44.626;11.176;2022-09-17T08:37:50;0.65;;;0.65;;
16401;SDS011;8310;44.626;11.176;2022-09-17T08:40:20;1.35;;;0.82;;
16401;SDS011;8310;44.626;11.176;2022-09-17T08:42:50;0.82;;;0.82;;
16401;SDS011;8310;44.626;11.176;2022-09-17T08:45:22;0.88;;;0.70;;
16401;SDS011;8310;44.626;11.176;2022-09-17T08:47:50;1.00;;;0.93;;
16401;SDS011;8310;44.626;11.176;2022-09-17T08:50:24;1.00;;;0.90;;
16401;SDS011;8310;44.626;11.176;2022-09-17T08:52:59;0.80;;;0.80;;
16401;SDS011;8310;44.626;11.176;2022-09-17T08:55:36;1.65;;;1.17;;
16401;SDS011;8310;44.626;11.176;2022-09-17T09:01:09;0.68;;;0.68;;
16401;SDS011;8310;44.626;11.176;2022-09-17T09:03:47;0.80;;;0.73;;
16401;SDS011;8310;44.626;11.176;2022-09-17T09:06:37;0.90;;;0.90;;
16401;SDS011;8310;44.626;11.176;2022-09-17T09:09:12;0.90;;;0.82;;
16401;SDS011;8310;44.626;11.176;2022-09-17T09:11:41;0.70;;;0.68;;
16401;SDS011;8310;44.626;11.176;2022-09-17T09:14:11;0.75;;;0.70;;
16401;SDS011;8310;44.626;11.176;2022-09-17T09:16:45;0.93;;;0.93;;
16401;SDS011;8310;44.626;11.176;2022-09-17T09:19:17;1.30;;;0.90;;
16401;SDS011;8310;44.626;11.176;2022-09-17T09:21:53;1.00;;;1.00;;
16401;SDS011;8310;44.626;11.176;2022-09-17T09:24:39;1.63;;;1.00;;
16401;SDS011;8310;44.626;11.176;2022-09-17T09:27:13;0.80;;;0.80;;
16401;SDS011;8310;44.626;11.176;2022-09-17T09:29:45;0.80;;;0.80;;
16401;SDS011;8310;44.626;11.176;2022-09-17T09:32:25;0.90;;;0.90;;
16401;SDS011;8310;44.626;11.176;2022-09-17T09:35:11;0.85;;;0.70;;
16401;SDS011;8310;44.626;11.176;2022-09-17T09:37:43;0.77;;;0.77;;
16401;SDS011;8310;44.626;11.176;2022-09-17T09:40:21;0.88;;;0.88;;
16401;SDS011;8310;44.626;11.176;2022-09-17T09:42:56;1.00;;;1.00;;
16401;SDS011;8310;44.626;11.176;2022-09-17T09:45:33;1.48;;;0.90;;
16401;SDS011;8310;44.626;11.176;2022-09-17T09:48:12;0.80;;;0.80;;
16401;SDS011;8310;44.626;11.176;2022-09-17T09:51:02;1.00;;;1.00;;
16401;SDS011;8310;44.626;11.176;2022-09-17T09:53:40;1.05;;;1.05;;
16401;SDS011;8310;44.626;11.176;2022-09-17T09:56:23;0.70;;;0.70;;
16401;SDS011;8310;44.626;11.176;2022-09-17T09:58:58;0.95;;;0.80;;
16401;SDS011;8310;44.626;11.176;2022-09-17T10:01:27;1.08;;;0.98;;
16401;SDS011;8310;44.626;11.176;2022-09-17T10:03:58;0.80;;;0.80;;
16401;SDS011;8310;44.626;11.176;2022-09-17T10:06:28;7.75;;;2.97;;
16401;SDS011;8310;44.626;11.176;2022-09-17T10:09:09;2.50;;;1.30;;
16401;SDS011;8310;44.626;11.176;2022-09-17T10:11:38;1.23;;;1.13;;
16401;SDS011;8310;44.626;11.176;2022-09-17T10:14:13;1.55;;;1.00;;
16401;SDS011;8310;44.626;11.176;2022-09-17T10:16:52;2.78;;;1.60;;
16401;SDS011;8310;44.626;11.176;2022-09-17T10:19:39;1.77;;;0.82;;
16401;SDS011;8310;44.626;11.176;2022-09-17T10:22:17;1.52;;;1.30;;
16401;SDS011;8310;44.626;11.176;2022-09-17T10:24:50;5.10;;;1.40;;
16401;SDS011;8310;44.626;11.176;2022-09-17T10:27:19;3.33;;;1.00;;
16401;SDS011;8310;44.626;11.176;2022-09-17T10:29:49;0.85;;;0.82;;
16401;SDS011;8310;44.626;11.176;2022-09-17T10:32:21;1.30;;;0.90;;
16401;SDS011;8310;44.626;11.176;2022-09-17T10:35:00;1.45;;;0.93;;
16401;SDS011;8310;44.626;11.176;2022-09-17T10:37:31;2.28;;;0.98;;
16401;SDS011;8310;44.626;11.176;2022-09-17T10:40:24;1.33;;;1.23;;
16401;SDS011;8310;44.626;11.176;2022-09-17T10:43:15;0.98;;;0.80;;
16401;SDS011;8310;44.626;11.176;2022-09-17T10:45:52;0.90;;;0.90;;
16401;SDS011;8310;44.626;11.176;2022-09-17T10:48:21;1.02;;;0.95;;
16401;SDS011;8310;44.626;11.176;2022-09-17T10:50:51;1.00;;;0.80;;
16401;SDS011;8310;44.626;11.176;2022-09-17T10:53:20;5.32;;;2.42;;
16401;SDS011;8310;44.626;11.176;2022-09-17T10:55:50;0.90;;;0.90;;
16401;SDS011;8310;44.626;11.176;2022-09-17T10:58:23;1.17;;;1.10;;
16401;SDS011;8310;44.626;11.176;2022-09-17T11:01:01;0.95;;;0.95;;
16401;SDS011;8310;44.626;11.176;2022-09-17T11:03:51;1.23;;;0.90;;
16401;SDS011;8310;44.626;11.176;2022-09-17T11:09:43;0.95;;;0.95;;
16401;SDS011;8310;44.626;11.176;2022-09-17T11:12:33;1.00;;;1.00;;
16401;SDS011;8310;44.626;11.176;2022-09-17T11:15:28;1.05;;;0.90;;
16401;SDS011;8310;44.626;11.176;2022-09-17T11:21:08;0.77;;;0.77;;
16401;SDS011;8310;44.626;11.176;2022-09-17T11:23:56;1.00;;;1.00;;
16401;SDS011;8310;44.626;11.176;2022-09-17T11:26:34;0.82;;;0.82;;
16401;SDS011;8310;44.626;11.176;2022-09-17T11:29:10;1.17;;;1.08;;
16401;SDS011;8310;44.626;11.176;2022-09-17T11:31:52;1.27;;;1.10;;
16401;SDS011;8310;44.626;11.176;2022-09-17T11:34:28;1.45;;;1.00;;
16401;SDS011;8310;44.626;11.176;2022-09-17T11:37:00;1.50;;;1.08;;
16401;SDS011;8310;44.626;11.176;2022-09-17T11:39:38;1.38;;;1.10;;
16401;SDS011;8310;44.626;11.176;2022-09-17T11:42:12;1.17;;;1.08;;
16401;SDS011;8310;44.626;11.176;2022-09-17T11:44:45;1.30;;;0.90;;
16401;SDS011;8310;44.626;11.176;2022-09-17T11:47:17;1.45;;;1.23;;
16401;SDS011;8310;44.626;11.176;2022-09-17T11:49:49;1.50;;;0.90;;
16401;SDS011;8310;44.626;11.176;2022-09-17T11:52:21;0.85;;;0.82;;
16401;SDS011;8310;44.626;11.176;2022-09-17T11:54:56;0.82;;;0.80;;
16401;SDS011;8310;44.626;11.176;2022-09-17T11:57:27;0.70;;;0.70;;
16401;SDS011;8310;44.626;11.176;2022-09-17T12:00:00;1.35;;;1.10;;
16401;SDS011;8310;44.626;11.176;2022-09-17T12:02:36;1.30;;;1.00;;
16401;SDS011;8310;44.626;11.176;2022-09-17T12:05:13;1.20;;;0.60;;
16401;SDS011;8310;44.626;11.176;2022-09-17T12:07:46;1.05;;;0.70;;
16401;SDS011;8310;44.626;11.176;2022-09-17T12:10:33;1.27;;;0.43;;
16401;SDS011;8310;44.626;11.176;2022-09-17T12:13:06;1.10;;;0.65;;
16401;SDS011;8310;44.626;11.176;2022-09-17T12:15:42;1.67;;;0.70;;
16401;SDS011;8310;44.626;11.176;2022-09-17T12:18:17;2.42;;;0.75;;
16401;SDS011;8310;44.626;11.176;2022-09-17T12:20:51;0.85;;;0.50;;
16401;SDS011;8310;44.626;11.176;2022-09-17T12:23:36;1.13;;;0.98;;
16401;SDS011;8310;44.626;11.176;2022-09-17T12:26:13;1.23;;;0.90;;
16401;SDS011;8310;44.626;11.176;2022-09-17T12:28:51;0.90;;;0.60;;
16401;SDS011;8310;44.626;11.176;2022-09-17T12:31:25;0.60;;;0.60;;
16401;SDS011;8310;44.626;11.176;2022-09-17T12:33:59;1.30;;;0.73;;
16401;SDS011;8310;44.626;11.176;2022-09-17T12:36:40;1.00;;;0.73;;
16401;SDS011;8310;44.626;11.176;2022-09-17T12:39:32;0.80;;;0.70;;
16401;SDS011;8310;44.626;11.176;2022-09-17T12:42:22;2.42;;;0.70;;
16401;SDS011;8310;44.626;11.176;2022-09-17T12:45:06;0.82;;;0.70;;
16401;SDS011;8310;44.626;11.176;2022-09-17T12:50:44;0.77;;;0.50;;
16401;SDS011;8310;44.626;11.176;2022-09-17T12:53:21;0.50;;;0.50;;
16401;SDS011;8310;44.626;11.176;2022-09-17T12:56:02;0.65;;;0.65;;
16401;SDS011;8310;44.626;11.176;2022-09-17T12:58:49;0.77;;;0.77;;
16401;SDS011;8310;44.626;11.176;2022-09-17T13:01:27;1.90;;;0.90;;
16401;SDS011;8310;44.626;11.176;2022-09-17T13:04:01;0.82;;;0.65;;
16401;SDS011;8310;44.626;11.176;2022-09-17T13:10:05;0.98;;;0.80;;
16401;SDS011;8310;44.626;11.176;2022-09-17T13:12:43;1.65;;;0.70;;
16401;SDS011;8310;44.626;11.176;2022-09-17T13:18:11;2.25;;;0.98;;
16401;SDS011;8310;44.626;11.176;2022-09-17T13:20:48;2.25;;;0.80;;
16401;SDS011;8310;44.626;11.176;2022-09-17T13:23:32;1.63;;;0.95;;
16401;SDS011;8310;44.626;11.176;2022-09-17T13:26:04;1.38;;;0.82;;
16401;SDS011;8310;44.626;11.176;2022-09-17T13:28:39;2.05;;;1.05;;
16401;SDS011;8310;44.626;11.176;2022-09-17T13:31:17;1.42;;;0.88;;
16401;SDS011;8310;44.626;11.176;2022-09-17T13:36:49;1.27;;;0.80;;
16401;SDS011;8310;44.626;11.176;2022-09-17T13:42:17;2.15;;;0.82;;
16401;SDS011;8310;44.626;11.176;2022-09-17T13:44:52;3.60;;;1.00;;
16401;SDS011;8310;44.626;11.176;2022-09-17T13:47:31;1.85;;;1.02;;
16401;SDS011;8310;44.626;11.176;2022-09-17T13:50:02;0.68;;;0.60;;
16401;SDS011;8310;44.626;11.176;2022-09-17T13:52:33;2.65;;;0.90;;
16401;SDS011;8310;44.626;11.176;2022-09-17T13:55:03;1.27;;;0.47;;
16401;SDS011;8310;44.626;11.176;2022-09-17T13:57:32;1.23;;;0.70;;
16401;SDS011;8310;44.626;11.176;2022-09-17T14:09:32;2.05;;;0.70;;
16401;SDS011;8310;44.626;11.176;2022-09-17T14:12:01;1.13;;;0.57;;
16401;SDS011;8310;44.626;11.176;2022-09-17T14:14:49;1.27;;;1.02;;
16401;SDS011;8310;44.626;11.176;2022-09-17T14:20:18;2.08;;;0.75;;
16401;SDS011;8310;44.626;11.176;2022-09-17T14:22:53;1.20;;;0.88;;
16401;SDS011;8310;44.626;11.176;2022-09-17T14:25:25;0.73;;;0.60;;
16401;SDS011;8310;44.626;11.176;2022-09-17T14:28:00;0.65;;;0.65;;
16401;SDS011;8310;44.626;11.176;2022-09-17T14:30:33;0.70;;;0.70;;
16401;SDS011;8310;44.626;11.176;2022-09-17T14:33:02;2.50;;;0.70;;
16401;SDS011;8310;44.626;11.176;2022-09-17T14:35:35;1.30;;;0.88;;
16401;SDS011;8310;44.626;11.176;2022-09-17T14:38:08;0.88;;;0.65;;
16401;SDS011;8310;44.626;11.176;2022-09-17T14:40:41;1.33;;;1.05;;
16401;SDS011;8310;44.626;11.176;2022-09-17T14:43:14;3.42;;;1.38;;
16401;SDS011;8310;44.626;11.176;2022-09-17T14:45:46;1.58;;;0.90;;
16401;SDS011;8310;44.626;11.176;2022-09-17T14:48:27;1.15;;;0.63;;
16401;SDS011;8310;44.626;11.176;2022-09-17T14:54:14;0.75;;;0.65;;
16401;SDS011;8310;44.626;11.176;2022-09-17T14:56:53;3.05;;;0.70;;
16401;SDS011;8310;44.626;11.176;2022-09-17T14:59:32;0.55;;;0.50;;
16401;SDS011;8310;44.626;11.176;2022-09-17T15:05:01;2.13;;;0.82;;
16401;SDS011;8310;44.626;11.176;2022-09-17T15:07:42;1.05;;;0.68;;
16401;SDS011;8310;44.626;11.176;2022-09-17T15:10:12;0.82;;;0.80;;
16401;SDS011;8310;44.626;11.176;2022-09-17T15:12:41;1.20;;;0.70;;
16401;SDS011;8310;44.626;11.176;2022-09-17T15:15:15;0.93;;;0.60;;
16401;SDS011;8310;44.626;11.176;2022-09-17T15:17:45;1.55;;;0.80;;
16401;SDS011;8310;44.626;11.176;2022-09-17T15:20:15;3.75;;;0.93;;
16401;SDS011;8310;44.626;11.176;2022-09-17T15:22:49;0.88;;;0.77;;
16401;SDS011;8310;44.626;11.176;2022-09-17T15:25:22;1.55;;;0.50;;
16401;SDS011;8310;44.626;11.176;2022-09-17T15:27:52;2.28;;;0.70;;
16401;SDS011;8310;44.626;11.176;2022-09-17T15:30:23;0.70;;;0.70;;
16401;SDS011;8310;44.626;11.176;2022-09-17T15:32:51;0.80;;;0.77;;
16401;SDS011;8310;44.626;11.176;2022-09-17T15:35:21;1.67;;;0.65;;
16401;SDS011;8310;44.626;11.176;2022-09-17T15:37:54;1.10;;;0.93;;
16401;SDS011;8310;44.626;11.176;2022-09-17T15:40:24;0.50;;;0.50;;
16401;SDS011;8310;44.626;11.176;2022-09-17T15:42:56;0.90;;;0.70;;
16401;SDS011;8310;44.626;11.176;2022-09-17T15:45:29;1.83;;;0.70;;
16401;SDS011;8310;44.626;11.176;2022-09-17T15:48:01;1.35;;;0.70;;
16401;SDS011;8310;44.626;11.176;2022-09-17T15:50:30;1.85;;;0.57;;
16401;SDS011;8310;44.626;11.176;2022-09-17T15:55:57;0.82;;;0.60;;
16401;SDS011;8310;44.626;11.176;2022-09-17T15:58:28;1.38;;;0.73;;
16401;SDS011;8310;44.626;11.176;2022-09-17T16:04:07;3.33;;;0.70;;
16401;SDS011;8310;44.626;11.176;2022-09-17T16:06:46;1.15;;;0.90;;
16401;SDS011;8310;44.626;11.176;2022-09-17T16:09:39;1.10;;;0.70;;
16401;SDS011;8310;44.626;11.176;2022-09-17T16:12:12;1.23;;;0.85;;